sensor_id;sensor_type;location;lat;lon;timestamp;P1;durP1;ratioP1;P2;durP2;ratioP2
59930;SDS011;45790;51.538;6.736;2022-12-07T00:02:14;6.78;;;4.43;;
59930;SDS011;45790;51.538;6.736;2022-12-07T00:04:39;7.03;;;4.05;;
59930;SDS011;45790;51.538;6.736;2022-12-07T00:07:05;6.45;;;3.85;;
59930;SDS011;45790;51.538;6.736;2022-12-07T00:09:30;6.32;;;4.35;;
59930;SDS011;45790;51.538;6.736;2022-12-07T00:11:55;6.25;;;3.55;;
59930;SDS011;45790;51.538;6.736;2022-12-07T00:14:21;7.15;;;3.90;;
59930;SDS011;45790;51.538;6.736;2022-12-07T00:16:48;5.68;;;3.67;;
59930;SDS011;45790;51.538;6.736;2022-12-07T00:19:14;5.15;;;3.88;;
59930;SDS011;45790;51.538;6.736;2022-12-07T00:21:40;5.45;;;3.60;;
59930;SDS011;45790;51.538;6.736;2022-12-07T00:24:05;7.10;;;4.30;;
59930;SDS011;45790;51.538;6.736;2022-12-07T00:26:32;6.30;;;4.15;;
59930;SDS011;45790;51.538;6.736;2022-12-07T00:29:00;7.57;;;4.22;;
59930;SDS011;45790;51.538;6.736;2022-12-07T00:31:29;7.10;;;4.25;;
59930;SDS011;45790;51.538;6.736;2022-12-07T00:33:57;5.55;;;3.85;;
59930;SDS011;45790;51.538;6.736;2022-12-07T00:36:23;5.88;;;3.80;;
59930;SDS011;45790;51.538;6.736;2022-12-07T00:38:48;6.55;;;4.22;;
59930;SDS011;45790;51.538;6.736;2022-12-07T00:41:18;6.88;;;4.10;;
59930;SDS011;45790;51.538;6.736;2022-12-07T00:43:46;5.97;;;4.13;;
59930;SDS011;45790;51.538;6.736;2022-12-07T00:46:12;6.70;;;4.78;;
59930;SDS011;45790;51.538;6.736;2022-12-07T00:48:38;5.72;;;4.03;;
59930;SDS011;45790;51.538;6.736;2022-12-07T00:51:04;7.68;;;4.32;;
59930;SDS011;45790;51.538;6.736;2022-12-07T00:53:30;6.60;;;4.15;;
59930;SDS011;45790;51.538;6.736;2022-12-07T00:55:55;6.70;;;4.45;;
59930;SDS011;45790;51.538;6.736;2022-12-07T00:58:21;6.60;;;4.18;;
59930;SDS011;45790;51.538;6.736;2022-12-07T01:00:47;6.38;;;4.25;;
59930;SDS011;45790;51.538;6.736;2022-12-07T01:03:13;10.35;;;4.65;;
59930;SDS011;45790;51.538;6.736;2022-12-07T01:05:40;6.63;;;4.43;;
59930;SDS011;45790;51.538;6.736;2022-12-07T01:08:06;5.97;;;4.38;;
59930;SDS011;45790;51.538;6.736;2022-12-07T01:10:31;7.55;;;4.60;;
59930;SDS011;45790;51.538;6.736;2022-12-07T01:12:57;6.80;;;4.40;;
59930;SDS011;45790;51.538;6.736;2022-12-07T01:15:23;6.68;;;4.28;;
59930;SDS011;45790;51.538;6.736;2022-12-07T01:17:49;7.25;;;4.63;;
59930;SDS011;45790;51.538;6.736;2022-12-07T01:20:15;6.78;;;4.55;;
59930;SDS011;45790;51.538;6.736;2022-12-07T01:22:41;7.63;;;4.82;;
59930;SDS011;45790;51.538;6.736;2022-12-07T01:25:07;6.32;;;4.60;;
59930;SDS011;45790;51.538;6.736;2022-12-07T01:27:33;6.15;;;4.55;;
59930;SDS011;45790;51.538;6.736;2022-12-07T01:29:59;6.88;;;4.88;;
59930;SDS011;45790;51.538;6.736;2022-12-07T01:32:25;6.25;;;4.82;;
59930;SDS011;45790;51.538;6.736;2022-12-07T01:34:50;7.35;;;4.85;;
59930;SDS011;45790;51.538;6.736;2022-12-07T01:37:15;6.78;;;4.80;;
59930;SDS011;45790;51.538;6.736;2022-12-07T01:39:41;7.85;;;4.93;;
59930;SDS011;45790;51.538;6.736;2022-12-07T01:42:10;7.35;;;5.00;;
59930;SDS011;45790;51.538;6.736;2022-12-07T01:47:38;7.43;;;4.43;;
59930;SDS011;45790;51.538;6.736;2022-12-07T01:50:04;6.35;;;4.50;;
59930;SDS011;45790;51.538;6.736;2022-12-07T01:52:31;7.07;;;4.80;;
59930;SDS011;45790;51.538;6.736;2022-12-07T01:55:00;6.88;;;4.88;;
59930;SDS011;45790;51.538;6.736;2022-12-07T01:57:28;6.97;;;4.50;;
59930;SDS011;45790;51.538;6.736;2022-12-07T01:59:54;6.40;;;4.63;;
59930;SDS011;45790;51.538;6.736;2022-12-07T02:02:27;7.28;;;4.55;;
59930;SDS011;45790;51.538;6.736;2022-12-07T02:04:56;7.05;;;4.63;;
59930;SDS011;45790;51.538;6.736;2022-12-07T02:07:22;7.28;;;5.32;;
59930;SDS011;45790;51.538;6.736;2022-12-07T02:09:48;6.50;;;4.57;;
59930;SDS011;45790;51.538;6.736;2022-12-07T02:12:13;6.72;;;5.05;;
59930;SDS011;45790;51.538;6.736;2022-12-07T02:14:39;6.75;;;5.10;;
59930;SDS011;45790;51.538;6.736;2022-12-07T02:28:29;8.98;;;5.03;;
59930;SDS011;45790;51.538;6.736;2022-12-07T02:31:01;7.78;;;4.90;;
59930;SDS011;45790;51.538;6.736;2022-12-07T02:33:50;6.20;;;4.55;;
59930;SDS011;45790;51.538;6.736;2022-12-07T02:36:21;8.10;;;4.70;;
59930;SDS011;45790;51.538;6.736;2022-12-07T02:38:53;7.25;;;4.90;;
59930;SDS011;45790;51.538;6.736;2022-12-07T02:43:55;7.07;;;4.85;;
59930;SDS011;45790;51.538;6.736;2022-12-07T02:46:24;7.20;;;5.20;;
59930;SDS011;45790;51.538;6.736;2022-12-07T02:48:52;6.63;;;5.07;;
59930;SDS011;45790;51.538;6.736;2022-12-07T03:01:09;7.25;;;5.10;;
59930;SDS011;45790;51.538;6.736;2022-12-07T03:04:03;8.10;;;5.20;;
59930;SDS011;45790;51.538;6.736;2022-12-07T03:06:42;8.13;;;5.53;;
59930;SDS011;45790;51.538;6.736;2022-12-07T03:14:38;6.93;;;4.88;;
59930;SDS011;45790;51.538;6.736;2022-12-07T03:17:08;8.77;;;5.18;;
59930;SDS011;45790;51.538;6.736;2022-12-07T03:19:38;7.38;;;5.22;;
59930;SDS011;45790;51.538;6.736;2022-12-07T03:22:06;7.25;;;4.93;;
59930;SDS011;45790;51.538;6.736;2022-12-07T03:24:37;7.75;;;5.50;;
59930;SDS011;45790;51.538;6.736;2022-12-07T03:27:09;7.35;;;5.10;;
59930;SDS011;45790;51.538;6.736;2022-12-07T03:29:42;6.88;;;5.07;;
59930;SDS011;45790;51.538;6.736;2022-12-07T03:34:46;7.85;;;5.25;;
59930;SDS011;45790;51.538;6.736;2022-12-07T03:37:18;8.70;;;5.55;;
59930;SDS011;45790;51.538;6.736;2022-12-07T03:42:22;7.05;;;4.95;;
59930;SDS011;45790;51.538;6.736;2022-12-07T03:44:47;8.25;;;5.22;;
59930;SDS011;45790;51.538;6.736;2022-12-07T03:49:55;10.35;;;5.75;;
59930;SDS011;45790;51.538;6.736;2022-12-07T03:52:32;7.73;;;5.33;;
59930;SDS011;45790;51.538;6.736;2022-12-07T03:57:45;8.02;;;5.68;;
59930;SDS011;45790;51.538;6.736;2022-12-07T04:00:12;7.68;;;5.15;;
59930;SDS011;45790;51.538;6.736;2022-12-07T04:02:39;7.60;;;5.35;;
59930;SDS011;45790;51.538;6.736;2022-12-07T04:05:04;9.15;;;5.32;;
59930;SDS011;45790;51.538;6.736;2022-12-07T04:07:30;7.78;;;5.45;;
59930;SDS011;45790;51.538;6.736;2022-12-07T04:09:55;7.70;;;5.68;;
59930;SDS011;45790;51.538;6.736;2022-12-07T04:12:21;7.60;;;5.65;;
59930;SDS011;45790;51.538;6.736;2022-12-07T04:14:47;9.02;;;5.50;;
59930;SDS011;45790;51.538;6.736;2022-12-07T04:17:12;8.65;;;5.25;;
59930;SDS011;45790;51.538;6.736;2022-12-07T04:19:38;7.43;;;5.22;;
59930;SDS011;45790;51.538;6.736;2022-12-07T04:22:04;7.35;;;5.60;;
59930;SDS011;45790;51.538;6.736;2022-12-07T04:24:30;6.97;;;4.53;;
59930;SDS011;45790;51.538;6.736;2022-12-07T04:26:55;7.85;;;5.43;;
59930;SDS011;45790;51.538;6.736;2022-12-07T04:29:21;7.15;;;5.22;;
59930;SDS011;45790;51.538;6.736;2022-12-07T04:31:46;7.10;;;5.28;;
59930;SDS011;45790;51.538;6.736;2022-12-07T04:34:12;7.78;;;5.30;;
59930;SDS011;45790;51.538;6.736;2022-12-07T04:36:38;7.28;;;5.13;;
59930;SDS011;45790;51.538;6.736;2022-12-07T04:39:04;8.18;;;5.22;;
59930;SDS011;45790;51.538;6.736;2022-12-07T04:41:30;8.65;;;5.88;;
59930;SDS011;45790;51.538;6.736;2022-12-07T04:44:02;6.95;;;5.20;;
59930;SDS011;45790;51.538;6.736;2022-12-07T04:46:29;8.15;;;5.22;;
59930;SDS011;45790;51.538;6.736;2022-12-07T04:48:55;8.65;;;5.88;;
59930;SDS011;45790;51.538;6.736;2022-12-07T04:51:22;7.03;;;5.18;;
59930;SDS011;45790;51.538;6.736;2022-12-07T04:53:49;7.70;;;5.60;;
59930;SDS011;45790;51.538;6.736;2022-12-07T04:56:15;7.22;;;5.32;;
59930;SDS011;45790;51.538;6.736;2022-12-07T04:58:42;7.53;;;4.93;;
59930;SDS011;45790;51.538;6.736;2022-12-07T05:01:07;8.20;;;5.55;;
59930;SDS011;45790;51.538;6.736;2022-12-07T05:03:33;7.50;;;5.22;;
59930;SDS011;45790;51.538;6.736;2022-12-07T05:05:58;7.75;;;5.18;;
59930;SDS011;45790;51.538;6.736;2022-12-07T05:08:24;8.15;;;5.35;;
59930;SDS011;45790;51.538;6.736;2022-12-07T05:10:49;7.85;;;4.97;;
59930;SDS011;45790;51.538;6.736;2022-12-07T05:13:15;8.23;;;5.28;;
59930;SDS011;45790;51.538;6.736;2022-12-07T05:15:40;7.75;;;5.45;;
59930;SDS011;45790;51.538;6.736;2022-12-07T05:18:07;7.88;;;5.20;;
59930;SDS011;45790;51.538;6.736;2022-12-07T05:20:33;6.80;;;5.25;;
59930;SDS011;45790;51.538;6.736;2022-12-07T05:22:58;7.05;;;5.10;;
59930;SDS011;45790;51.538;6.736;2022-12-07T05:25:23;8.32;;;5.10;;
59930;SDS011;45790;51.538;6.736;2022-12-07T05:27:49;7.40;;;5.05;;
59930;SDS011;45790;51.538;6.736;2022-12-07T05:30:14;7.97;;;5.38;;
59930;SDS011;45790;51.538;6.736;2022-12-07T05:32:40;7.47;;;5.03;;
59930;SDS011;45790;51.538;6.736;2022-12-07T05:35:05;9.52;;;5.45;;
59930;SDS011;45790;51.538;6.736;2022-12-07T05:37:30;8.20;;;5.38;;
59930;SDS011;45790;51.538;6.736;2022-12-07T05:39:56;8.20;;;4.82;;
59930;SDS011;45790;51.538;6.736;2022-12-07T05:42:21;7.85;;;5.35;;
59930;SDS011;45790;51.538;6.736;2022-12-07T05:44:47;8.23;;;5.40;;
59930;SDS011;45790;51.538;6.736;2022-12-07T05:47:13;10.20;;;6.22;;
59930;SDS011;45790;51.538;6.736;2022-12-07T05:49:39;8.35;;;4.72;;
59930;SDS011;45790;51.538;6.736;2022-12-07T05:52:05;7.85;;;5.03;;
59930;SDS011;45790;51.538;6.736;2022-12-07T05:54:30;8.90;;;4.80;;
59930;SDS011;45790;51.538;6.736;2022-12-07T05:56:56;8.30;;;4.97;;
59930;SDS011;45790;51.538;6.736;2022-12-07T05:59:22;8.50;;;5.05;;
59930;SDS011;45790;51.538;6.736;2022-12-07T06:01:51;7.68;;;4.85;;
59930;SDS011;45790;51.538;6.736;2022-12-07T06:04:18;8.13;;;4.78;;
59930;SDS011;45790;51.538;6.736;2022-12-07T06:06:44;6.50;;;4.60;;
59930;SDS011;45790;51.538;6.736;2022-12-07T06:09:09;7.43;;;4.93;;
59930;SDS011;45790;51.538;6.736;2022-12-07T06:11:34;7.53;;;4.93;;
59930;SDS011;45790;51.538;6.736;2022-12-07T06:14:18;8.35;;;4.72;;
59930;SDS011;45790;51.538;6.736;2022-12-07T06:16:44;6.88;;;4.50;;
59930;SDS011;45790;51.538;6.736;2022-12-07T06:19:10;5.88;;;4.38;;
59930;SDS011;45790;51.538;6.736;2022-12-07T06:21:35;8.57;;;4.72;;
59930;SDS011;45790;51.538;6.736;2022-12-07T06:24:00;6.80;;;4.80;;
59930;SDS011;45790;51.538;6.736;2022-12-07T06:26:26;7.95;;;4.72;;
59930;SDS011;45790;51.538;6.736;2022-12-07T06:28:52;7.78;;;5.07;;
59930;SDS011;45790;51.538;6.736;2022-12-07T06:31:17;6.28;;;4.20;;
59930;SDS011;45790;51.538;6.736;2022-12-07T06:33:42;7.70;;;4.95;;
59930;SDS011;45790;51.538;6.736;2022-12-07T06:36:08;7.30;;;4.70;;
59930;SDS011;45790;51.538;6.736;2022-12-07T06:38:33;7.38;;;4.47;;
59930;SDS011;45790;51.538;6.736;2022-12-07T06:40:59;7.07;;;4.68;;
59930;SDS011;45790;51.538;6.736;2022-12-07T06:43:24;7.60;;;4.63;;
59930;SDS011;45790;51.538;6.736;2022-12-07T06:45:50;6.70;;;4.45;;
59930;SDS011;45790;51.538;6.736;2022-12-07T06:48:15;7.25;;;4.65;;
59930;SDS011;45790;51.538;6.736;2022-12-07T06:50:41;8.75;;;4.80;;
59930;SDS011;45790;51.538;6.736;2022-12-07T06:53:07;8.07;;;5.57;;
59930;SDS011;45790;51.538;6.736;2022-12-07T06:55:32;6.25;;;4.45;;
59930;SDS011;45790;51.538;6.736;2022-12-07T06:57:58;7.43;;;5.00;;
59930;SDS011;45790;51.538;6.736;2022-12-07T07:00:23;8.38;;;4.78;;
59930;SDS011;45790;51.538;6.736;2022-12-07T07:02:50;7.90;;;4.55;;
59930;SDS011;45790;51.538;6.736;2022-12-07T07:10:25;6.18;;;4.22;;
59930;SDS011;45790;51.538;6.736;2022-12-07T07:12:51;7.20;;;4.43;;
59930;SDS011;45790;51.538;6.736;2022-12-07T07:15:16;6.55;;;4.45;;
59930;SDS011;45790;51.538;6.736;2022-12-07T07:38:29;6.88;;;4.15;;
59930;SDS011;45790;51.538;6.736;2022-12-07T07:40:54;7.38;;;4.53;;
59930;SDS011;45790;51.538;6.736;2022-12-07T07:43:19;7.07;;;4.22;;
59930;SDS011;45790;51.538;6.736;2022-12-07T07:45:45;5.88;;;3.90;;
59930;SDS011;45790;51.538;6.736;2022-12-07T07:48:10;7.85;;;4.60;;
59930;SDS011;45790;51.538;6.736;2022-12-07T07:50:36;7.32;;;4.63;;
59930;SDS011;45790;51.538;6.736;2022-12-07T07:53:01;7.80;;;4.35;;
59930;SDS011;45790;51.538;6.736;2022-12-07T07:55:26;6.78;;;4.90;;
59930;SDS011;45790;51.538;6.736;2022-12-07T07:57:51;6.55;;;4.30;;
59930;SDS011;45790;51.538;6.736;2022-12-07T08:00:17;7.05;;;3.75;;
59930;SDS011;45790;51.538;6.736;2022-12-07T08:02:42;6.50;;;3.95;;
59930;SDS011;45790;51.538;6.736;2022-12-07T08:05:08;9.02;;;4.63;;
59930;SDS011;45790;51.538;6.736;2022-12-07T08:07:34;6.85;;;4.55;;
59930;SDS011;45790;51.538;6.736;2022-12-07T08:09:59;6.32;;;3.92;;
59930;SDS011;45790;51.538;6.736;2022-12-07T08:12:24;7.32;;;4.65;;
59930;SDS011;45790;51.538;6.736;2022-12-07T08:14:50;7.07;;;4.70;;
59930;SDS011;45790;51.538;6.736;2022-12-07T08:17:15;8.45;;;4.80;;
59930;SDS011;45790;51.538;6.736;2022-12-07T08:19:40;8.50;;;4.43;;
59930;SDS011;45790;51.538;6.736;2022-12-07T08:22:06;6.43;;;4.15;;
59930;SDS011;45790;51.538;6.736;2022-12-07T08:24:34;8.07;;;4.97;;
59930;SDS011;45790;51.538;6.736;2022-12-07T08:27:00;7.05;;;4.22;;
59930;SDS011;45790;51.538;6.736;2022-12-07T08:29:25;7.10;;;4.20;;
59930;SDS011;45790;51.538;6.736;2022-12-07T08:31:51;7.40;;;3.72;;
59930;SDS011;45790;51.538;6.736;2022-12-07T08:34:16;10.48;;;4.45;;
59930;SDS011;45790;51.538;6.736;2022-12-07T08:36:41;8.20;;;4.00;;
59930;SDS011;45790;51.538;6.736;2022-12-07T08:39:07;7.75;;;4.40;;
59930;SDS011;45790;51.538;6.736;2022-12-07T08:41:32;6.45;;;3.88;;
59930;SDS011;45790;51.538;6.736;2022-12-07T08:43:58;5.93;;;3.50;;
59930;SDS011;45790;51.538;6.736;2022-12-07T08:46:28;7.65;;;3.88;;
59930;SDS011;45790;51.538;6.736;2022-12-07T08:49:07;6.47;;;3.63;;
59930;SDS011;45790;51.538;6.736;2022-12-07T08:51:35;8.50;;;3.88;;
59930;SDS011;45790;51.538;6.736;2022-12-07T08:54:01;6.30;;;3.90;;
59930;SDS011;45790;51.538;6.736;2022-12-07T08:56:29;6.63;;;3.83;;
59930;SDS011;45790;51.538;6.736;2022-12-07T08:58:55;7.47;;;3.78;;
59930;SDS011;45790;51.538;6.736;2022-12-07T09:01:20;6.20;;;3.72;;
59930;SDS011;45790;51.538;6.736;2022-12-07T09:03:45;6.15;;;3.55;;
59930;SDS011;45790;51.538;6.736;2022-12-07T09:06:10;7.53;;;3.60;;
59930;SDS011;45790;51.538;6.736;2022-12-07T09:08:37;6.47;;;3.78;;
59930;SDS011;45790;51.538;6.736;2022-12-07T09:11:06;8.10;;;3.70;;
59930;SDS011;45790;51.538;6.736;2022-12-07T09:13:31;8.10;;;3.30;;
59930;SDS011;45790;51.538;6.736;2022-12-07T09:15:57;7.80;;;3.35;;
59930;SDS011;45790;51.538;6.736;2022-12-07T09:18:22;6.82;;;3.70;;
59930;SDS011;45790;51.538;6.736;2022-12-07T09:20:49;4.57;;;3.15;;
59930;SDS011;45790;51.538;6.736;2022-12-07T09:23:14;5.28;;;3.30;;
59930;SDS011;45790;51.538;6.736;2022-12-07T09:25:39;7.25;;;3.30;;
59930;SDS011;45790;51.538;6.736;2022-12-07T09:28:05;5.85;;;3.70;;
59930;SDS011;45790;51.538;6.736;2022-12-07T09:30:30;7.10;;;3.30;;
59930;SDS011;45790;51.538;6.736;2022-12-07T09:32:56;5.78;;;3.30;;
59930;SDS011;45790;51.538;6.736;2022-12-07T09:35:22;6.53;;;3.22;;
59930;SDS011;45790;51.538;6.736;2022-12-07T09:37:47;6.75;;;3.58;;
59930;SDS011;45790;51.538;6.736;2022-12-07T09:40:13;4.90;;;2.95;;
59930;SDS011;45790;51.538;6.736;2022-12-07T09:42:41;4.82;;;2.85;;
59930;SDS011;45790;51.538;6.736;2022-12-07T09:45:15;7.25;;;2.90;;
59930;SDS011;45790;51.538;6.736;2022-12-07T09:47:45;7.03;;;3.13;;
59930;SDS011;45790;51.538;6.736;2022-12-07T09:50:20;12.95;;;4.55;;
59930;SDS011;45790;51.538;6.736;2022-12-07T09:52:48;5.80;;;2.90;;
59930;SDS011;45790;51.538;6.736;2022-12-07T09:55:24;6.80;;;3.55;;
59930;SDS011;45790;51.538;6.736;2022-12-07T09:57:52;6.13;;;2.80;;
59930;SDS011;45790;51.538;6.736;2022-12-07T10:00:18;8.50;;;3.10;;
59930;SDS011;45790;51.538;6.736;2022-12-07T10:02:47;5.72;;;2.92;;
59930;SDS011;45790;51.538;6.736;2022-12-07T10:05:18;5.60;;;3.08;;
59930;SDS011;45790;51.538;6.736;2022-12-07T10:07:47;5.05;;;2.85;;
59930;SDS011;45790;51.538;6.736;2022-12-07T10:10:48;4.63;;;2.60;;
59930;SDS011;45790;51.538;6.736;2022-12-07T10:13:12;8.65;;;3.22;;
59930;SDS011;45790;51.538;6.736;2022-12-07T10:15:43;6.93;;;3.00;;
59930;SDS011;45790;51.538;6.736;2022-12-07T10:21:27;4.10;;;2.60;;
59930;SDS011;45790;51.538;6.736;2022-12-07T10:23:59;6.45;;;3.05;;
59930;SDS011;45790;51.538;6.736;2022-12-07T10:28:53;4.68;;;2.40;;
59930;SDS011;45790;51.538;6.736;2022-12-07T10:31:21;6.38;;;2.80;;
59930;SDS011;45790;51.538;6.736;2022-12-07T10:36:20;6.03;;;2.60;;
59930;SDS011;45790;51.538;6.736;2022-12-07T10:38:49;5.88;;;2.50;;
59930;SDS011;45790;51.538;6.736;2022-12-07T10:41:17;5.68;;;2.50;;
59930;SDS011;45790;51.538;6.736;2022-12-07T10:43:47;3.85;;;2.33;;
59930;SDS011;45790;51.538;6.736;2022-12-07T10:49:13;4.45;;;2.42;;
59930;SDS011;45790;51.538;6.736;2022-12-07T10:57:36;6.25;;;2.00;;
59930;SDS011;45790;51.538;6.736;2022-12-07T11:00:19;6.88;;;2.10;;
59930;SDS011;45790;51.538;6.736;2022-12-07T11:10:30;4.55;;;2.35;;
59930;SDS011;45790;51.538;6.736;2022-12-07T11:13:16;5.65;;;2.28;;
59930;SDS011;45790;51.538;6.736;2022-12-07T11:23:56;5.75;;;2.05;;
59930;SDS011;45790;51.538;6.736;2022-12-07T11:26:32;4.70;;;2.17;;
59930;SDS011;45790;51.538;6.736;2022-12-07T11:35:08;3.72;;;1.70;;
59930;SDS011;45790;51.538;6.736;2022-12-07T11:37:51;4.63;;;1.80;;
59930;SDS011;45790;51.538;6.736;2022-12-07T11:40:24;3.92;;;1.80;;
59930;SDS011;45790;51.538;6.736;2022-12-07T11:45:47;2.95;;;1.50;;
59930;SDS011;45790;51.538;6.736;2022-12-07T11:48:33;4.95;;;1.70;;
59930;SDS011;45790;51.538;6.736;2022-12-07T11:51:00;6.53;;;1.60;;
59930;SDS011;45790;51.538;6.736;2022-12-07T11:56:03;2.67;;;1.40;;
59930;SDS011;45790;51.538;6.736;2022-12-07T12:03:47;3.22;;;1.35;;
59930;SDS011;45790;51.538;6.736;2022-12-07T12:06:17;2.42;;;1.30;;
59930;SDS011;45790;51.538;6.736;2022-12-07T12:08:46;4.47;;;1.70;;
59930;SDS011;45790;51.538;6.736;2022-12-07T12:11:27;3.65;;;1.38;;
59930;SDS011;45790;51.538;6.736;2022-12-07T12:14:07;2.97;;;1.48;;
59930;SDS011;45790;51.538;6.736;2022-12-07T12:22:18;3.72;;;1.50;;
59930;SDS011;45790;51.538;6.736;2022-12-07T12:24:47;4.82;;;1.40;;
59930;SDS011;45790;51.538;6.736;2022-12-07T12:27:30;3.17;;;1.38;;
59930;SDS011;45790;51.538;6.736;2022-12-07T12:29:57;3.92;;;1.67;;
59930;SDS011;45790;51.538;6.736;2022-12-07T12:32:34;2.28;;;1.40;;
59930;SDS011;45790;51.538;6.736;2022-12-07T12:35:21;2.50;;;1.50;;
59930;SDS011;45790;51.538;6.736;2022-12-07T12:37:55;4.22;;;1.33;;
59930;SDS011;45790;51.538;6.736;2022-12-07T12:40:58;3.50;;;1.30;;
59930;SDS011;45790;51.538;6.736;2022-12-07T12:43:42;2.45;;;1.40;;
59930;SDS011;45790;51.538;6.736;2022-12-07T12:51:49;2.47;;;1.20;;
59930;SDS011;45790;51.538;6.736;2022-12-07T13:02:30;3.58;;;1.48;;
59930;SDS011;45790;51.538;6.736;2022-12-07T13:18:02;2.33;;;1.20;;
59930;SDS011;45790;51.538;6.736;2022-12-07T13:20:55;2.78;;;1.20;;
59930;SDS011;45790;51.538;6.736;2022-12-07T13:23:24;2.05;;;1.05;;
59930;SDS011;45790;51.538;6.736;2022-12-07T13:26:18;1.60;;;1.10;;
59930;SDS011;45790;51.538;6.736;2022-12-07T13:33:53;3.63;;;1.30;;
59930;SDS011;45790;51.538;6.736;2022-12-07T13:36:20;2.22;;;1.10;;
59930;SDS011;45790;51.538;6.736;2022-12-07T13:38:52;3.78;;;1.20;;
59930;SDS011;45790;51.538;6.736;2022-12-07T13:41:20;3.28;;;1.40;;
59930;SDS011;45790;51.538;6.736;2022-12-07T13:46:30;2.28;;;1.02;;
59930;SDS011;45790;51.538;6.736;2022-12-07T13:49:00;2.38;;;1.27;;
59930;SDS011;45790;51.538;6.736;2022-12-07T13:51:26;2.08;;;1.08;;
59930;SDS011;45790;51.538;6.736;2022-12-07T13:53:54;3.78;;;1.35;;
59930;SDS011;45790;51.538;6.736;2022-12-07T13:56:25;3.13;;;1.17;;
59930;SDS011;45790;51.538;6.736;2022-12-07T13:58:52;2.92;;;0.98;;
59930;SDS011;45790;51.538;6.736;2022-12-07T14:01:17;2.20;;;1.38;;
59930;SDS011;45790;51.538;6.736;2022-12-07T14:03:43;2.88;;;1.23;;
59930;SDS011;45790;51.538;6.736;2022-12-07T14:06:14;3.33;;;1.13;;
59930;SDS011;45790;51.538;6.736;2022-12-07T14:08:40;2.25;;;1.10;;
59930;SDS011;45790;51.538;6.736;2022-12-07T14:11:06;4.60;;;1.23;;
59930;SDS011;45790;51.538;6.736;2022-12-07T14:13:35;2.30;;;1.08;;
59930;SDS011;45790;51.538;6.736;2022-12-07T14:16:27;2.45;;;1.30;;
59930;SDS011;45790;51.538;6.736;2022-12-07T14:18:55;2.90;;;1.50;;
59930;SDS011;45790;51.538;6.736;2022-12-07T14:21:22;2.70;;;1.38;;
59930;SDS011;45790;51.538;6.736;2022-12-07T14:26:48;3.20;;;1.20;;
59930;SDS011;45790;51.538;6.736;2022-12-07T14:31:53;4.13;;;1.42;;
59930;SDS011;45790;51.538;6.736;2022-12-07T14:34:22;2.70;;;1.40;;
59930;SDS011;45790;51.538;6.736;2022-12-07T14:36:48;2.85;;;1.30;;
59930;SDS011;45790;51.538;6.736;2022-12-07T14:39:13;4.60;;;1.13;;
59930;SDS011;45790;51.538;6.736;2022-12-07T14:41:38;3.45;;;1.23;;
59930;SDS011;45790;51.538;6.736;2022-12-07T14:44:16;2.28;;;1.02;;
59930;SDS011;45790;51.538;6.736;2022-12-07T14:46:42;2.50;;;1.10;;
59930;SDS011;45790;51.538;6.736;2022-12-07T14:49:07;4.25;;;1.25;;
59930;SDS011;45790;51.538;6.736;2022-12-07T14:51:32;4.22;;;1.55;;
59930;SDS011;45790;51.538;6.736;2022-12-07T14:53:58;3.13;;;1.25;;
59930;SDS011;45790;51.538;6.736;2022-12-07T14:56:24;3.20;;;1.20;;
59930;SDS011;45790;51.538;6.736;2022-12-07T14:58:50;2.78;;;1.27;;
59930;SDS011;45790;51.538;6.736;2022-12-07T15:01:15;5.68;;;1.48;;
59930;SDS011;45790;51.538;6.736;2022-12-07T15:03:40;3.25;;;1.40;;
59930;SDS011;45790;51.538;6.736;2022-12-07T15:06:06;4.07;;;1.48;;
59930;SDS011;45790;51.538;6.736;2022-12-07T15:08:32;2.85;;;1.50;;
59930;SDS011;45790;51.538;6.736;2022-12-07T15:10:57;3.60;;;1.50;;
59930;SDS011;45790;51.538;6.736;2022-12-07T15:13:23;2.58;;;1.42;;
59930;SDS011;45790;51.538;6.736;2022-12-07T15:16:08;6.05;;;1.70;;
59930;SDS011;45790;51.538;6.736;2022-12-07T15:18:35;4.32;;;1.48;;
59930;SDS011;45790;51.538;6.736;2022-12-07T15:21:00;2.95;;;1.27;;
59930;SDS011;45790;51.538;6.736;2022-12-07T15:23:25;3.95;;;1.63;;
59930;SDS011;45790;51.538;6.736;2022-12-07T15:25:51;3.85;;;1.48;;
59930;SDS011;45790;51.538;6.736;2022-12-07T15:28:16;6.15;;;1.95;;
59930;SDS011;45790;51.538;6.736;2022-12-07T15:30:42;3.50;;;1.30;;
59930;SDS011;45790;51.538;6.736;2022-12-07T15:33:08;4.45;;;1.60;;
59930;SDS011;45790;51.538;6.736;2022-12-07T15:35:38;4.28;;;1.48;;
59930;SDS011;45790;51.538;6.736;2022-12-07T15:38:06;3.53;;;1.33;;
59930;SDS011;45790;51.538;6.736;2022-12-07T15:40:31;3.58;;;1.40;;
59930;SDS011;45790;51.538;6.736;2022-12-07T15:42:57;6.78;;;1.70;;
59930;SDS011;45790;51.538;6.736;2022-12-07T15:45:22;3.55;;;1.50;;
59930;SDS011;45790;51.538;6.736;2022-12-07T15:47:47;4.05;;;1.67;;
59930;SDS011;45790;51.538;6.736;2022-12-07T15:50:14;3.78;;;1.85;;
59930;SDS011;45790;51.538;6.736;2022-12-07T15:52:40;3.30;;;1.70;;
59930;SDS011;45790;51.538;6.736;2022-12-07T15:55:06;5.88;;;2.13;;
59930;SDS011;45790;51.538;6.736;2022-12-07T15:57:32;3.17;;;1.60;;
59930;SDS011;45790;51.538;6.736;2022-12-07T15:59:58;3.67;;;1.80;;
59930;SDS011;45790;51.538;6.736;2022-12-07T16:02:23;4.40;;;1.70;;
59930;SDS011;45790;51.538;6.736;2022-12-07T16:04:49;3.70;;;1.73;;
59930;SDS011;45790;51.538;6.736;2022-12-07T16:07:15;5.72;;;2.10;;
59930;SDS011;45790;51.538;6.736;2022-12-07T16:09:41;4.07;;;1.90;;
59930;SDS011;45790;51.538;6.736;2022-12-07T16:12:07;3.45;;;1.70;;
59930;SDS011;45790;51.538;6.736;2022-12-07T16:14:32;6.10;;;1.85;;
59930;SDS011;45790;51.538;6.736;2022-12-07T16:16:58;6.10;;;1.70;;
59930;SDS011;45790;51.538;6.736;2022-12-07T16:19:24;4.55;;;1.90;;
59930;SDS011;45790;51.538;6.736;2022-12-07T16:21:49;5.10;;;1.88;;
59930;SDS011;45790;51.538;6.736;2022-12-07T16:24:14;3.92;;;1.85;;
59930;SDS011;45790;51.538;6.736;2022-12-07T16:26:41;4.57;;;1.80;;
59930;SDS011;45790;51.538;6.736;2022-12-07T16:29:07;7.75;;;2.22;;
59930;SDS011;45790;51.538;6.736;2022-12-07T16:31:32;4.05;;;1.50;;
59930;SDS011;45790;51.538;6.736;2022-12-07T16:33:58;3.75;;;1.90;;
59930;SDS011;45790;51.538;6.736;2022-12-07T16:36:24;4.85;;;1.98;;
59930;SDS011;45790;51.538;6.736;2022-12-07T16:38:52;4.95;;;1.88;;
59930;SDS011;45790;51.538;6.736;2022-12-07T16:41:17;4.57;;;1.60;;
59930;SDS011;45790;51.538;6.736;2022-12-07T16:43:43;4.28;;;1.55;;
59930;SDS011;45790;51.538;6.736;2022-12-07T16:46:08;3.58;;;1.80;;
59930;SDS011;45790;51.538;6.736;2022-12-07T16:48:35;4.53;;;1.73;;
59930;SDS011;45790;51.538;6.736;2022-12-07T16:51:05;4.10;;;1.80;;
59930;SDS011;45790;51.538;6.736;2022-12-07T16:53:34;5.53;;;1.90;;
59930;SDS011;45790;51.538;6.736;2022-12-07T16:56:00;4.45;;;1.92;;
59930;SDS011;45790;51.538;6.736;2022-12-07T16:58:25;5.07;;;2.08;;
59930;SDS011;45790;51.538;6.736;2022-12-07T17:00:50;5.60;;;1.65;;
59930;SDS011;45790;51.538;6.736;2022-12-07T17:03:16;5.28;;;1.65;;
59930;SDS011;45790;51.538;6.736;2022-12-07T17:05:42;4.05;;;1.90;;
59930;SDS011;45790;51.538;6.736;2022-12-07T17:08:09;5.22;;;1.75;;
59930;SDS011;45790;51.538;6.736;2022-12-07T17:10:35;3.45;;;1.65;;
59930;SDS011;45790;51.538;6.736;2022-12-07T17:13:03;3.53;;;1.77;;
59930;SDS011;45790;51.538;6.736;2022-12-07T17:16:02;3.72;;;2.00;;
59930;SDS011;45790;51.538;6.736;2022-12-07T17:18:30;4.20;;;1.73;;
59930;SDS011;45790;51.538;6.736;2022-12-07T17:21:01;6.03;;;1.95;;
59930;SDS011;45790;51.538;6.736;2022-12-07T17:23:30;3.75;;;2.17;;
59930;SDS011;45790;51.538;6.736;2022-12-07T17:25:56;3.30;;;1.63;;
59930;SDS011;45790;51.538;6.736;2022-12-07T17:28:22;4.97;;;2.00;;
59930;SDS011;45790;51.538;6.736;2022-12-07T17:30:47;4.28;;;1.63;;
59930;SDS011;45790;51.538;6.736;2022-12-07T17:33:12;5.28;;;2.10;;
59930;SDS011;45790;51.538;6.736;2022-12-07T17:35:38;3.08;;;1.63;;
59930;SDS011;45790;51.538;6.736;2022-12-07T17:38:03;4.55;;;1.35;;